Time;durP1;ratioP1;P1;durP2;ratioP2;P2;SDS_P1;SDS_P2;PMS_P1;PMS_P2;Temp;Humidity;BMP_temperature;BMP_pressure;BME280_temperature;BME280_humidity;BME280_pressure;Samples;Min_cycle;Max_cycle;Signal;HPM_P1;HPM_P2
2023/04/23 00:00:31;;;;;;;;;;;;;;;;;;5002822;28;19914;-72
2023/04/23 00:02:57;;;;;;;;;;;;;;;;;;5004617;28;19920;-71
2023/04/23 00:05:23;;;;;;;;;;;;;;;;;;5002862;28;20283;-72
2023/04/23 00:07:49;;;;;;;;;;;;;;;;;;5005057;28;19927;-72
2023/04/23 00:10:15;;;;;;;;;;;;;;;;;;4987720;28;19940;-71
2023/04/23 00:12:42;;;;;;;;;;;;;;;;;;5002370;28;19917;-72
2023/04/23 00:15:08;;;;;;;;;;;;;;;;;;5004806;28;20500;-72
2023/04/23 00:17:34;;;;;;;;;;;;;;;;;;5001586;28;20434;-72
2023/04/23 00:20:00;;;;;;;;;;;;;;;;;;5004428;28;20138;-72
2023/04/23 00:22:26;;;;;;;;;;;;;;;;;;4998173;28;20236;-72
2023/04/23 00:24:52;;;;;;;;;;;;;;;;;;5002226;28;19921;-72
2023/04/23 00:27:19;;;;;;;;;;;;;;;;;;4998904;28;19966;-71
2023/04/23 00:29:45;;;;;;;;;;;;;;;;;;5003034;28;20003;-71
2023/04/23 00:32:13;;;;;;;;;;;;;;;;;;4999850;28;19974;-71
2023/04/23 00:34:39;;;;;;;;;;;;;;;;;;4983133;28;20347;-71
2023/04/23 00:37:06;;;;;;;;;;;;;;;;;;5005146;28;19913;-71
2023/04/23 00:39:32;;;;;;;;;;;;;;;;;;5001217;28;19913;-71
2023/04/23 00:42:01;;;;;;;;;;;;;;;;;;5010100;28;19913;-72
2023/04/23 00:44:27;;;;;;;;;;;;;;;;;;5003595;28;20101;-71
2023/04/23 00:46:53;;;;;;;;;;;;;;;;;;5003022;28;20000;-72
2023/04/23 00:49:20;;;;;;;;;;;;;;;;;;4999495;28;20230;-72
2023/04/23 00:51:46;;;;;;;;;;;;;;;;;;5006083;28;20338;-74
2023/04/23 00:54:13;;;;;;;;;;;;;;;;;;5004112;28;20191;-71
2023/04/23 00:56:39;;;;;;;;;;;;;;;;;;4998136;28;19917;-72
2023/04/23 00:59:05;;;;;;;;;;;;;;;;;;5003422;28;19912;-72
2023/04/23 01:01:32;;;;;;;;;;;;;;;;;;4999167;28;20590;-72
2023/04/23 01:03:58;;;;;;;;;;;;;;;;;;5011508;28;20433;-71
2023/04/23 01:06:27;;;;;;;;;;;;;;;;;;5002072;28;20419;-72
2023/04/23 01:08:53;;;;;;;;;;;;;;;;;;5006067;28;19917;-72
2023/04/23 01:11:19;;;;;;;;;;;;;;;;;;5002705;28;20203;-72
2023/04/23 01:13:45;;;;;;;;;;;;;;;;;;4984046;28;20358;-72
2023/04/23 01:16:11;;;;;;;;;;;;;;;;;;5003237;28;19984;-72
2023/04/23 01:18:39;;;;;;;;;;;;;;;;;;5007056;28;20331;-72
2023/04/23 01:21:06;;;;;;;;;;;;;;;;;;5005934;28;19909;-72
2023/04/23 01:23:32;;;;;;;;;;;;;;;;;;5001970;28;19972;-72
2023/04/23 01:25:57;;;;;;;;;;;;;;;;;;5004518;28;19909;-72
2023/04/23 01:28:24;;;;;;;;;;;;;;;;;;4984012;28;19944;-72
2023/04/23 01:30:50;;;;;;;;;;;;;;;;;;5005828;28;19940;-72
2023/04/23 01:33:15;;;;;;;;;;;;;;;;;;5002057;28;20016;-72
2023/04/23 01:35:41;;;;;;;;;;;;;;;;;;4985668;28;19929;-72
2023/04/23 01:38:08;;;;;;;;;;;;;;;;;;4989447;28;19940;-72
2023/04/23 01:40:34;;;;;;;;;;;;;;;;;;4985239;28;19913;-73
2023/04/23 01:43:00;;;;;;;;;;;;;;;;;;4987525;28;19917;-72
2023/04/23 01:45:26;;;;;;;;;;;;;;;;;;4985540;28;19917;-72
2023/04/23 01:47:52;;;;;;;;;;;;;;;;;;4987383;28;19917;-72
2023/04/23 01:50:20;;;;;;;;;;;;;;;;;;4980025;28;19940;-73
2023/04/23 01:52:46;;;;;;;;;;;;;;;;;;4986762;28;19924;-72
2023/04/23 01:55:13;;;;;;;;;;;;;;;;;;4991279;28;19921;-72
2023/04/23 01:57:39;;;;;;;;;;;;;;;;;;4983934;28;19910;-72
2023/04/23 02:00:08;;;;;;;;;;;;;;;;;;4987884;28;20413;-72
2023/04/23 02:02:34;;;;;;;;;;;;;;;;;;4985451;28;19924;-72
2023/04/23 02:05:02;;;;;;;;;;;;;;;;;;4976493;28;19913;-72
2023/04/23 02:07:28;;;;;;;;;;;;;;;;;;4977141;28;20052;-72
2023/04/23 02:09:54;;;;;;;;;;;;;;;;;;4994395;28;19910;-71
2023/04/23 02:12:20;;;;;;;;;;;;;;;;;;4978147;28;20463;-73
2023/04/23 02:14:46;;;;;;;;;;;;;;;;;;4979603;28;19921;-71
2023/04/23 02:17:12;;;;;;;;;;;;;;;;;;4979915;28;20458;-72
2023/04/23 02:19:38;;;;;;;;;;;;;;;;;;4977626;28;19917;-71
2023/04/23 02:22:04;;;;;;;;;;;;;;;;;;4994885;28;20168;-72
2023/04/23 02:24:30;;;;;;;;;;;;;;;;;;4975916;28;19917;-72
2023/04/23 02:26:56;;;;;;;;;;;;;;;;;;4978871;28;19972;-72
2023/04/23 02:29:22;;;;;;;;;;;;;;;;;;4976846;28;19968;-72
2023/04/23 02:31:48;;;;;;;;;;;;;;;;;;4994092;28;20000;-72
2023/04/23 02:34:14;;;;;;;;;;;;;;;;;;4981040;28;19921;-72
2023/04/23 02:36:40;;;;;;;;;;;;;;;;;;4996498;28;19960;-72
2023/04/23 02:39:06;;;;;;;;;;;;;;;;;;4980950;28;20538;-72
2023/04/23 02:41:32;;;;;;;;;;;;;;;;;;4995032;28;19912;-72
2023/04/23 02:43:58;;;;;;;;;;;;;;;;;;4998183;28;19940;-72
2023/04/23 02:46:24;;;;;;;;;;;;;;;;;;4997937;28;20653;-72
2023/04/23 02:48:50;;;;;;;;;;;;;;;;;;4984845;28;19917;-72
2023/04/23 02:51:16;;;;;;;;;;;;;;;;;;4998086;28;20159;-72
2023/04/23 02:53:42;;;;;;;;;;;;;;;;;;5002133;28;19916;-72
2023/04/23 02:56:08;;;;;;;;;;;;;;;;;;4999140;28;19923;-72
2023/04/23 02:58:34;;;;;;;;;;;;;;;;;;4998540;28;19918;-72
2023/04/23 03:01:00;;;;;;;;;;;;;;;;;;5000441;28;20004;-72
2023/04/23 03:03:30;;;;;;;;;;;;;;;;;;4981487;28;20312;-72
2023/04/23 03:05:56;;;;;;;;;;;;;;;;;;5001964;28;19913;-72
2023/04/23 03:08:22;;;;;;;;;;;;;;;;;;4997679;28;20805;-72
2023/04/23 03:10:48;;;;;;;;;;;;;;;;;;5002870;28;19917;-72
2023/04/23 03:13:14;;;;;;;;;;;;;;;;;;4999208;28;19928;-72
2023/04/23 03:15:40;;;;;;;;;;;;;;;;;;4997385;28;20474;-71
2023/04/23 03:18:07;;;;;;;;;;;;;;;;;;4997144;28;19917;-71
2023/04/23 03:20:33;;;;;;;;;;;;;;;;;;4979656;28;19955;-71
2023/04/23 03:22:59;;;;;;;;;;;;;;;;;;5001891;28;20051;-73
2023/04/23 03:25:25;;;;;;;;;;;;;;;;;;4995152;28;20535;-73
2023/04/23 03:27:51;;;;;;;;;;;;;;;;;;4999717;28;19920;-71
2023/04/23 03:30:17;;;;;;;;;;;;;;;;;;4997201;28;20456;-72
2023/04/23 03:32:43;;;;;;;;;;;;;;;;;;4999839;28;20244;-72
2023/04/23 03:35:09;;;;;;;;;;;;;;;;;;4999538;28;20047;-72
2023/04/23 03:37:35;;;;;;;;;;;;;;;;;;4994349;28;19917;-73
2023/04/23 03:40:05;;;;;;;;;;;;;;;;;;5002510;28;20806;-73
2023/04/23 03:42:31;;;;;;;;;;;;;;;;;;4977105;28;19965;-72
2023/04/23 03:44:57;;;;;;;;;;;;;;;;;;4985709;28;19915;-73
2023/04/23 03:47:23;;;;;;;;;;;;;;;;;;4995236;28;19923;-72
2023/04/23 03:49:49;;;;;;;;;;;;;;;;;;5000002;28;20118;-72
2023/04/23 03:52:15;;;;;;;;;;;;;;;;;;5003651;28;19921;-72
2023/04/23 03:54:41;;;;;;;;;;;;;;;;;;4996546;28;20460;-72
2023/04/23 03:57:07;;;;;;;;;;;;;;;;;;4997689;28;19913;-72
2023/04/23 03:59:33;;;;;;;;;;;;;;;;;;4982367;28;20386;-73
2023/04/23 04:01:59;;;;;;;;;;;;;;;;;;4998610;28;20276;-71
2023/04/23 04:04:25;;;;;;;;;;;;;;;;;;4996420;28;19913;-71
2023/04/23 04:06:51;;;;;;;;;;;;;;;;;;4982918;28;20203;-72
2023/04/23 04:09:17;;;;;;;;;;;;;;;;;;4994089;28;19975;-72
2023/04/23 04:11:43;;;;;;;;;;;;;;;;;;4998396;28;19913;-71
2023/04/23 04:14:09;;;;;;;;;;;;;;;;;;4983027;28;20248;-71
2023/04/23 04:16:35;;;;;;;;;;;;;;;;;;4994004;28;19921;-71
2023/04/23 04:19:01;;;;;;;;;;;;;;;;;;4980439;28;20262;-71
2023/04/23 04:21:27;;;;;;;;;;;;;;;;;;4993371;28;20276;-71
2023/04/23 04:23:53;;;;;;;;;;;;;;;;;;4999456;28;20688;-72
2023/04/23 04:26:19;;;;;;;;;;;;;;;;;;4995985;28;20564;-72
2023/04/23 04:28:45;;;;;;;;;;;;;;;;;;4997856;28;19919;-72
2023/04/23 04:31:11;;;;;;;;;;;;;;;;;;4996145;28;19983;-72
2023/04/23 04:33:38;;;;;;;;;;;;;;;;;;4991673;28;19928;-72
2023/04/23 04:36:04;;;;;;;;;;;;;;;;;;4997811;28;19921;-73
2023/04/23 04:38:30;;;;;;;;;;;;;;;;;;4992867;28;20303;-73
2023/04/23 04:41:01;;;;;;;;;;;;;;;;;;4997759;28;19909;-72
2023/04/23 04:43:27;;;;;;;;;;;;;;;;;;4992712;28;19991;-71
2023/04/23 04:45:53;;;;;;;;;;;;;;;;;;4996205;28;19917;-71
2023/04/23 04:48:19;;;;;;;;;;;;;;;;;;4976047;28;20516;-72
2023/04/23 04:50:45;;;;;;;;;;;;;;;;;;4999703;28;19917;-72
2023/04/23 04:53:11;;;;;;;;;;;;;;;;;;4977900;28;19963;-72
2023/04/23 04:55:37;;;;;;;;;;;;;;;;;;4994846;28;20686;-72
2023/04/23 04:58:03;;;;;;;;;;;;;;;;;;4999282;28;19966;-72
2023/04/23 05:00:29;;;;;;;;;;;;;;;;;;4994857;28;19919;-72
2023/04/23 05:02:55;;;;;;;;;;;;;;;;;;4997722;28;19924;-72
2023/04/23 05:05:21;;;;;;;;;;;;;;;;;;4993464;28;19960;-72
2023/04/23 05:07:47;;;;;;;;;;;;;;;;;;4994955;28;19912;-72
2023/04/23 05:10:13;;;;;;;;;;;;;;;;;;4998801;28;20074;-72
2023/04/23 05:12:42;;;;;;;;;;;;;;;;;;4996027;28;20082;-72
2023/04/23 05:15:08;;;;;;;;;;;;;;;;;;4998321;28;19912;-71
2023/04/23 05:17:34;;;;;;;;;;;;;;;;;;4976518;28;19917;-73
2023/04/23 05:20:00;;;;;;;;;;;;;;;;;;4981001;28;20104;-73
2023/04/23 05:22:26;;;;;;;;;;;;;;;;;;4980434;28;20176;-72
2023/04/23 05:24:52;;;;;;;;;;;;;;;;;;4996741;28;20183;-72
2023/04/23 05:27:18;;;;;;;;;;;;;;;;;;4992786;28;20115;-72
2023/04/23 05:29:45;;;;;;;;;;;;;;;;;;4999436;28;20015;-72
2023/04/23 05:32:11;;;;;;;;;;;;;;;;;;4981527;28;19913;-72
2023/04/23 05:34:37;;;;;;;;;;;;;;;;;;4996832;28;20435;-72
2023/04/23 05:37:03;;;;;;;;;;;;;;;;;;4980156;28;19913;-72
2023/04/23 05:39:29;;;;;;;;;;;;;;;;;;4979156;28;19943;-72
2023/04/23 05:41:55;;;;;;;;;;;;;;;;;;5000241;28;19920;-72
2023/04/23 05:44:21;;;;;;;;;;;;;;;;;;4991922;28;19919;-72
2023/04/23 05:46:47;;;;;;;;;;;;;;;;;;4999605;28;19917;-72
2023/04/23 05:49:13;;;;;;;;;;;;;;;;;;5000731;28;19979;-71
2023/04/23 05:51:39;;;;;;;;;;;;;;;;;;4998100;28;20330;-72
2023/04/23 05:54:05;;;;;;;;;;;;;;;;;;4998100;28;20012;-72
2023/04/23 05:56:31;;;;;;;;;;;;;;;;;;4982455;28;20035;-73
2023/04/23 05:58:56;;;;;;;;;;;;;;;;;;5002916;28;19984;-72
2023/04/23 06:01:23;;;;;;;;;;;;;;;;;;5000276;28;21247;-73
2023/04/23 06:03:49;;;;;;;;;;;;;;;;;;5000013;28;20375;-71
2023/04/23 06:06:15;;;;;;;;;;;;;;;;;;4985482;28;20549;-72
2023/04/23 06:08:41;;;;;;;;;;;;;;;;;;5000535;28;20023;-71
2023/04/23 06:11:07;;;;;;;;;;;;;;;;;;5002642;28;19920;-72
2023/04/23 06:13:39;;;;;;;;;;;;;;;;;;4998724;28;19940;-73
2023/04/23 06:16:05;;;;;;;;;;;;;;;;;;5002795;28;19956;-71
2023/04/23 06:18:30;;;;;;;;;;;;;;;;;;4998703;28;20103;-72
2023/04/23 06:20:56;;;;;;;;;;;;;;;;;;5002202;28;19912;-72
2023/04/23 06:23:22;;;;;;;;;;;;;;;;;;4981418;28;19920;-72
2023/04/23 06:25:49;;;;;;;;;;;;;;;;;;5001862;28;19966;-72
2023/04/23 06:28:15;;;;;;;;;;;;;;;;;;5002091;28;19916;-72
2023/04/23 06:30:41;;;;;;;;;;;;;;;;;;4996440;28;19928;-72
2023/04/23 06:33:07;;;;;;;;;;;;;;;;;;5002324;28;19917;-72
2023/04/23 06:35:33;;;;;;;;;;;;;;;;;;4997578;28;19948;-72
2023/04/23 06:38:00;;;;;;;;;;;;;;;;;;5001832;28;20063;-72
2023/04/23 06:40:26;;;;;;;;;;;;;;;;;;4999492;28;20056;-72
2023/04/23 06:42:52;;;;;;;;;;;;;;;;;;4998610;28;20618;-72
2023/04/23 06:45:17;;;;;;;;;;;;;;;;;;4999130;28;19920;-72
2023/04/23 06:47:44;;;;;;;;;;;;;;;;;;5002385;28;19917;-72
2023/04/23 06:50:10;;;;;;;;;;;;;;;;;;5002108;28;19913;-72
2023/04/23 06:52:36;;;;;;;;;;;;;;;;;;4993978;28;20347;-72
2023/04/23 06:55:01;;;;;;;;;;;;;;;;;;4997378;28;20454;-72
2023/04/23 06:57:27;;;;;;;;;;;;;;;;;;4979325;28;20044;-72
2023/04/23 06:59:54;;;;;;;;;;;;;;;;;;5002285;28;20359;-71
2023/04/23 07:02:20;;;;;;;;;;;;;;;;;;4983380;28;19913;-72
2023/04/23 07:04:46;;;;;;;;;;;;;;;;;;5003398;28;19948;-72
2023/04/23 07:07:12;;;;;;;;;;;;;;;;;;5001416;28;19913;-72
2023/04/23 07:09:38;;;;;;;;;;;;;;;;;;4979718;28;19913;-74
2023/04/23 07:12:04;;;;;;;;;;;;;;;;;;4984232;28;20366;-73
2023/04/23 07:14:30;;;;;;;;;;;;;;;;;;4996807;28;19924;-74
2023/04/23 07:16:56;;;;;;;;;;;;;;;;;;4983412;28;19917;-71
2023/04/23 07:19:22;;;;;;;;;;;;;;;;;;4995824;28;19913;-73
2023/04/23 07:21:48;;;;;;;;;;;;;;;;;;4996547;28;19956;-72
2023/04/23 07:24:14;;;;;;;;;;;;;;;;;;4983785;28;19913;-73
2023/04/23 07:26:40;;;;;;;;;;;;;;;;;;4993876;28;19963;-72
2023/04/23 07:29:06;;;;;;;;;;;;;;;;;;4982480;28;19944;-72
2023/04/23 07:31:32;;;;;;;;;;;;;;;;;;4980684;28;20366;-73
2023/04/23 07:33:58;;;;;;;;;;;;;;;;;;4998672;28;19917;-72
2023/04/23 07:36:24;;;;;;;;;;;;;;;;;;4996079;28;20058;-72
2023/04/23 07:38:50;;;;;;;;;;;;;;;;;;4997064;28;19913;-72
2023/04/23 07:41:16;;;;;;;;;;;;;;;;;;4997096;28;20493;-72
2023/04/23 07:43:42;;;;;;;;;;;;;;;;;;4980317;28;20032;-72
2023/04/23 07:46:08;;;;;;;;;;;;;;;;;;5001752;28;20426;-72
2023/04/23 07:48:34;;;;;;;;;;;;;;;;;;4991886;28;19990;-72
2023/04/23 07:51:00;;;;;;;;;;;;;;;;;;4999749;28;19913;-73
2023/04/23 07:53:27;;;;;;;;;;;;;;;;;;4995553;28;20375;-72
2023/04/23 07:55:54;;;;;;;;;;;;;;;;;;4983752;28;19917;-72
2023/04/23 07:58:20;;;;;;;;;;;;;;;;;;4997603;28;19909;-72
2023/04/23 08:00:46;;;;;;;;;;;;;;;;;;4998795;28;20307;-72
2023/04/23 08:03:12;;;;;;;;;;;;;;;;;;4995347;28;19944;-73
2023/04/23 08:05:39;;;;;;;;;;;;;;;;;;4995992;28;19913;-73
2023/04/23 08:08:06;;;;;;;;;;;;;;;;;;4999447;28;19917;-73
2023/04/23 08:10:32;;;;;;;;;;;;;;;;;;4997742;28;20429;-74
2023/04/23 08:12:58;;;;;;;;;;;;;;;;;;4998449;28;19913;-72
2023/04/23 08:15:23;;;;;;;;;;;;;;;;;;4992439;28;19967;-72
2023/04/23 08:17:49;;;;;;;;;;;;;;;;;;4999177;28;19917;-71
2023/04/23 08:20:15;;;;;;;;;;;;;;;;;;4994856;28;20367;-73
2023/04/23 08:22:41;;;;;;;;;;;;;;;;;;4978718;28;20006;-73
2023/04/23 08:25:07;;;;;;;;;;;;;;;;;;5002120;28;19920;-73
2023/04/23 08:27:33;;;;;;;;;;;;;;;;;;5001464;28;20402;-73
2023/04/23 08:29:59;;;;;;;;;;;;;;;;;;5001761;28;20343;-71
2023/04/23 08:32:25;;;;;;;;;;;;;;;;;;5000478;28;19924;-72
2023/04/23 08:34:51;;;;;;;;;;;;;;;;;;5004132;28;20448;-72
2023/04/23 08:37:19;;;;;;;;;;;;;;;;;;5001733;28;19944;-73
2023/04/23 08:39:45;;;;;;;;;;;;;;;;;;4998368;28;20530;-72
2023/04/23 08:42:11;;;;;;;;;;;;;;;;;;4995110;28;20264;-72
2023/04/23 08:44:37;;;;;;;;;;;;;;;;;;4996939;28;22284;-71
2023/04/23 08:47:02;;;;;;;;;;;;;;;;;;5001565;28;19970;-72
2023/04/23 08:49:28;;;;;;;;;;;;;;;;;;4999221;28;20011;-71
2023/04/23 08:51:54;;;;;;;;;;;;;;;;;;4997004;28;20019;-71
2023/04/23 08:54:20;;;;;;;;;;;;;;;;;;4996220;28;19918;-72
2023/04/23 08:56:46;;;;;;;;;;;;;;;;;;5003395;28;20469;-72
2023/04/23 08:59:12;;;;;;;;;;;;;;;;;;5002637;28;20275;-72
2023/04/23 09:01:38;;;;;;;;;;;;;;;;;;5000194;28;19920;-74
2023/04/23 09:04:04;;;;;;;;;;;;;;;;;;4986861;28;19913;-72
2023/04/23 09:06:33;;;;;;;;;;;;;;;;;;4999787;28;20296;-72
2023/04/23 09:08:59;;;;;;;;;;;;;;;;;;4999252;28;20003;-71
2023/04/23 09:11:25;;;;;;;;;;;;;;;;;;4998588;28;20259;-71
2023/04/23 09:13:51;;;;;;;;;;;;;;;;;;5001711;28;20013;-70
2023/04/23 09:16:17;;;;;;;;;;;;;;;;;;4980206;28;19913;-70
2023/04/23 09:18:43;;;;;;;;;;;;;;;;;;4998298;28;20375;-70
2023/04/23 09:21:09;;;;;;;;;;;;;;;;;;5001815;28;20011;-69
2023/04/23 09:23:37;;;;;;;;;;;;;;;;;;4981423;28;19994;-68
2023/04/23 09:26:03;;;;;;;;;;;;;;;;;;5003777;28;20758;-69
2023/04/23 09:28:29;;;;;;;;;;;;;;;;;;5006190;28;20412;-67
2023/04/23 09:30:55;;;;;;;;;;;;;;;;;;4988484;28;20507;-68
2023/04/23 09:33:21;;;;;;;;;;;;;;;;;;5000984;28;20300;-68
2023/04/23 09:35:47;;;;;;;;;;;;;;;;;;5001810;28;19925;-69
2023/04/23 09:38:13;;;;;;;;;;;;;;;;;;5001303;28;20239;-69
2023/04/23 09:40:39;;;;;;;;;;;;;;;;;;4999978;28;19913;-69
2023/04/23 09:43:06;;;;;;;;;;;;;;;;;;5004141;28;20461;-69
2023/04/23 09:45:34;;;;;;;;;;;;;;;;;;5001772;28;20355;-69
2023/04/23 09:48:00;;;;;;;;;;;;;;;;;;5003743;28;19917;-69
2023/04/23 09:50:26;;;;;;;;;;;;;;;;;;4999425;28;19939;-68
2023/04/23 09:52:52;;;;;;;;;;;;;;;;;;5001657;28;20511;-67
2023/04/23 09:55:18;;;;;;;;;;;;;;;;;;5000431;28;19927;-68
2023/04/23 09:57:44;;;;;;;;;;;;;;;;;;5001770;28;20478;-68
2023/04/23 10:00:10;;;;;;;;;;;;;;;;;;4985439;28;20308;-68
2023/04/23 10:02:36;;;;;;;;;;;;;;;;;;4998236;28;19913;-69
2023/04/23 10:05:02;;;;;;;;;;;;;;;;;;5003780;28;19942;-68
2023/04/23 10:07:28;;;;;;;;;;;;;;;;;;5000792;28;19921;-68
2023/04/23 10:09:54;;;;;;;;;;;;;;;;;;5002720;28;20403;-69
2023/04/23 10:12:20;;;;;;;;;;;;;;;;;;5000860;28;19920;-68
2023/04/23 10:14:48;;;;;;;;;;;;;;;;;;5005573;28;20436;-67
2023/04/23 10:17:14;;;;;;;;;;;;;;;;;;5002713;28;20208;-68
2023/04/23 10:19:41;;;;;;;;;;;;;;;;;;4983050;28;20661;-68
2023/04/23 10:22:07;;;;;;;;;;;;;;;;;;5003743;28;20352;-67
2023/04/23 10:24:33;;;;;;;;;;;;;;;;;;4999002;28;19920;-71
2023/04/23 10:27:01;;;;;;;;;;;;;;;;;;5005257;28;19909;-71
2023/04/23 10:29:28;;;;;;;;;;;;;;;;;;4998770;28;19913;-74
2023/04/23 10:31:54;;;;;;;;;;;;;;;;;;5001107;28;20186;-70
2023/04/23 10:34:20;;;;;;;;;;;;;;;;;;5008093;28;20310;-70
2023/04/23 10:36:46;;;;;;;;;;;;;;;;;;5003583;28;20370;-71
2023/04/23 10:39:12;;;;;;;;;;;;;;;;;;5003472;28;19913;-70
2023/04/23 10:41:38;;;;;;;;;;;;;;;;;;4984196;28;19917;-69
2023/04/23 10:44:04;;;;;;;;;;;;;;;;;;5004355;28;20356;-71
2023/04/23 10:46:30;;;;;;;;;;;;;;;;;;5001028;28;19919;-71
2023/04/23 10:48:56;;;;;;;;;;;;;;;;;;4984912;28;19917;-71
2023/04/23 10:51:22;;;;;;;;;;;;;;;;;;5003092;28;19991;-71
2023/04/23 10:53:48;;;;;;;;;;;;;;;;;;5001714;28;19917;-71
2023/04/23 10:56:14;;;;;;;;;;;;;;;;;;5005810;28;19917;-72
2023/04/23 10:58:40;;;;;;;;;;;;;;;;;;4998008;28;20425;-71
2023/04/23 11:01:06;;;;;;;;;;;;;;;;;;5002961;28;19921;-72
2023/04/23 11:03:32;;;;;;;;;;;;;;;;;;5000492;28;20825;-72
2023/04/23 11:05:58;;;;;;;;;;;;;;;;;;4985718;28;20583;-69
2023/04/23 11:08:24;;;;;;;;;;;;;;;;;;4981643;28;19913;-70
2023/04/23 11:10:50;;;;;;;;;;;;;;;;;;5003406;28;19925;-69
2023/04/23 11:13:19;;;;;;;;;;;;;;;;;;5002111;28;19947;-71
2023/04/23 11:15:45;;;;;;;;;;;;;;;;;;5003324;28;20726;-73
2023/04/23 11:18:11;;;;;;;;;;;;;;;;;;4985022;28;20008;-74
2023/04/23 11:20:37;;;;;;;;;;;;;;;;;;5002189;28;24669;-75
2023/04/23 11:23:03;;;;;;;;;;;;;;;;;;5001654;28;20671;-74
2023/04/23 11:25:29;;;;;;;;;;;;;;;;;;4999698;28;19920;-74
2023/04/23 11:27:55;;;;;;;;;;;;;;;;;;4981697;28;19913;-74
2023/04/23 11:30:21;;;;;;;;;;;;;;;;;;5002520;28;19940;-73
2023/04/23 11:32:47;;;;;;;;;;;;;;;;;;4983558;28;20363;-75
2023/04/23 11:35:13;;;;;;;;;;;;;;;;;;5000031;28;20539;-73
2023/04/23 11:37:42;;;;;;;;;;;;;;;;;;4998643;28;19920;-74
2023/04/23 11:40:12;;;;;;;;;;;;;;;;;;5002744;28;20403;-73
2023/04/23 11:42:38;;;;;;;;;;;;;;;;;;4996313;28;20454;-73
2023/04/23 11:45:04;;;;;;;;;;;;;;;;;;5000470;28;19909;-74
2023/04/23 11:47:31;;;;;;;;;;;;;;;;;;4999260;28;19924;-74
2023/04/23 11:49:57;;;;;;;;;;;;;;;;;;4987637;28;19909;-73
2023/04/23 11:52:23;;;;;;;;;;;;;;;;;;5001199;28;20385;-74
2023/04/23 11:54:49;;;;;;;;;;;;;;;;;;5000035;28;20282;-74
2023/04/23 11:57:15;;;;;;;;;;;;;;;;;;4998108;28;19920;-74
2023/04/23 11:59:41;;;;;;;;;;;;;;;;;;4985933;28;19952;-74
2023/04/23 12:02:07;;;;;;;;;;;;;;;;;;5000728;28;19924;-75
2023/04/23 12:04:33;;;;;;;;;;;;;;;;;;5001882;28;19913;-74
2023/04/23 12:06:59;;;;;;;;;;;;;;;;;;5001488;28;20320;-74
2023/04/23 12:09:25;;;;;;;;;;;;;;;;;;4983057;28;20267;-74
2023/04/23 12:11:51;;;;;;;;;;;;;;;;;;5003640;28;19974;-74
2023/04/23 12:14:19;;;;;;;;;;;;;;;;;;5000505;28;20026;-74
2023/04/23 12:16:45;;;;;;;;;;;;;;;;;;4998512;28;20357;-73
2023/04/23 12:19:11;;;;;;;;;;;;;;;;;;5002526;28;20497;-74
2023/04/23 12:21:37;;;;;;;;;;;;;;;;;;5001196;28;20608;-75
2023/04/23 12:24:04;;;;;;;;;;;;;;;;;;5002376;28;20258;-74
2023/04/23 12:26:30;;;;;;;;;;;;;;;;;;5000394;28;20026;-74
2023/04/23 12:28:57;;;;;;;;;;;;;;;;;;5003854;28;20738;-74
2023/04/23 12:31:23;;;;;;;;;;;;;;;;;;4983437;28;20358;-75
2023/04/23 12:33:49;;;;;;;;;;;;;;;;;;5002498;28;19917;-74
2023/04/23 12:36:15;;;;;;;;;;;;;;;;;;4985640;28;20016;-73
2023/04/23 12:38:41;;;;;;;;;;;;;;;;;;4982610;28;21253;-74
2023/04/23 12:41:07;;;;;;;;;;;;;;;;;;5000641;28;19939;-75
2023/04/23 12:43:33;;;;;;;;;;;;;;;;;;5000757;28;20024;-74
2023/04/23 12:45:59;;;;;;;;;;;;;;;;;;5000995;28;20026;-74
2023/04/23 12:48:25;;;;;;;;;;;;;;;;;;4999027;28;19952;-74
2023/04/23 12:50:51;;;;;;;;;;;;;;;;;;4986303;28;20303;-73
2023/04/23 12:53:17;;;;;;;;;;;;;;;;;;4999855;28;19952;-73
2023/04/23 12:55:44;;;;;;;;;;;;;;;;;;5003334;28;19995;-73
2023/04/23 12:58:10;;;;;;;;;;;;;;;;;;5002760;28;20280;-74
2023/04/23 13:00:36;;;;;;;;;;;;;;;;;;4996537;28;20765;-72
2023/04/23 13:03:02;;;;;;;;;;;;;;;;;;5002813;28;19913;-74
2023/04/23 13:05:28;;;;;;;;;;;;;;;;;;4982011;28;20095;-72
2023/04/23 13:07:56;;;;;;;;;;;;;;;;;;5003454;28;20330;-72
2023/04/23 13:10:22;;;;;;;;;;;;;;;;;;4996899;28;20412;-74
2023/04/23 13:12:48;;;;;;;;;;;;;;;;;;4999577;28;20337;-74
2023/04/23 13:15:14;;;;;;;;;;;;;;;;;;5000416;28;20342;-75
2023/04/23 13:17:40;;;;;;;;;;;;;;;;;;5001195;28;19923;-72
2023/04/23 13:20:06;;;;;;;;;;;;;;;;;;5001948;28;19937;-72
2023/04/23 13:22:32;;;;;;;;;;;;;;;;;;4983271;28;20417;-72
2023/04/23 13:24:58;;;;;;;;;;;;;;;;;;5001583;28;19928;-72
2023/04/23 13:27:24;;;;;;;;;;;;;;;;;;5001556;28;19927;-73
2023/04/23 13:29:50;;;;;;;;;;;;;;;;;;4999767;28;20016;-73
2023/04/23 13:32:16;;;;;;;;;;;;;;;;;;5002849;28;19913;-72
2023/04/23 13:34:42;;;;;;;;;;;;;;;;;;4998310;28;20249;-72
2023/04/23 13:37:08;;;;;;;;;;;;;;;;;;5003302;28;20669;-76
2023/04/23 13:39:34;;;;;;;;;;;;;;;;;;5000640;28;20283;-72
2023/04/23 13:42:00;;;;;;;;;;;;;;;;;;5001321;28;20412;-72
2023/04/23 13:44:26;;;;;;;;;;;;;;;;;;4997620;28;19909;-72
2023/04/23 13:46:52;;;;;;;;;;;;;;;;;;5002121;28;19917;-72
2023/04/23 13:49:18;;;;;;;;;;;;;;;;;;5000253;28;20446;-71
2023/04/23 13:51:44;;;;;;;;;;;;;;;;;;5000087;28;19912;-71
2023/04/23 13:54:11;;;;;;;;;;;;;;;;;;5002214;28;19916;-74
2023/04/23 13:56:37;;;;;;;;;;;;;;;;;;4982014;28;23563;-74
2023/04/23 13:59:03;;;;;;;;;;;;;;;;;;5002705;28;19988;-72
2023/04/23 14:01:29;;;;;;;;;;;;;;;;;;4999456;28;19920;-73
2023/04/23 14:03:56;;;;;;;;;;;;;;;;;;5002027;28;20295;-71
2023/04/23 14:06:22;;;;;;;;;;;;;;;;;;5001088;28;20141;-73
2023/04/23 14:08:48;;;;;;;;;;;;;;;;;;5003089;28;19913;-74
2023/04/23 14:11:14;;;;;;;;;;;;;;;;;;5001923;28;20010;-72
2023/04/23 14:13:40;;;;;;;;;;;;;;;;;;5003512;28;19917;-72
2023/04/23 14:16:06;;;;;;;;;;;;;;;;;;5003634;28;19920;-73
2023/04/23 14:18:32;;;;;;;;;;;;;;;;;;5000092;28;20000;-71
2023/04/23 14:20:57;;;;;;;;;;;;;;;;;;4988359;28;19917;-73
2023/04/23 14:23:26;;;;;;;;;;;;;;;;;;5002913;28;19956;-71
2023/04/23 14:25:52;;;;;;;;;;;;;;;;;;5006922;28;19938;-71
2023/04/23 14:28:18;;;;;;;;;;;;;;;;;;5005043;28;20468;-71
2023/04/23 14:30:44;;;;;;;;;;;;;;;;;;5002635;28;20220;-69
2023/04/23 14:33:10;;;;;;;;;;;;;;;;;;5006975;28;19912;-70
2023/04/23 14:35:36;;;;;;;;;;;;;;;;;;5002747;28;19936;-72
2023/04/23 14:38:02;;;;;;;;;;;;;;;;;;5005514;28;19913;-74
2023/04/23 14:40:28;;;;;;;;;;;;;;;;;;4987754;28;19916;-75
2023/04/23 14:42:54;;;;;;;;;;;;;;;;;;5005126;28;20172;-74
2023/04/23 14:45:20;;;;;;;;;;;;;;;;;;4999052;28;19938;-74
2023/04/23 14:47:47;;;;;;;;;;;;;;;;;;5005275;28;20355;-71
2023/04/23 14:50:12;;;;;;;;;;;;;;;;;;4987548;28;20000;-73
2023/04/23 14:52:38;;;;;;;;;;;;;;;;;;4984058;28;19918;-74
2023/04/23 14:55:05;;;;;;;;;;;;;;;;;;5003022;28;20035;-72
2023/04/23 14:57:31;;;;;;;;;;;;;;;;;;5000658;28;19917;-70
2023/04/23 14:59:56;;;;;;;;;;;;;;;;;;5003224;28;20244;-72
2023/04/23 15:02:23;;;;;;;;;;;;;;;;;;4984631;28;19913;-73
2023/04/23 15:04:48;;;;;;;;;;;;;;;;;;5005398;28;19928;-72
2023/04/23 15:07:15;;;;;;;;;;;;;;;;;;4988750;28;19913;-74
2023/04/23 15:09:41;;;;;;;;;;;;;;;;;;5001412;28;19971;-75
2023/04/23 15:12:08;;;;;;;;;;;;;;;;;;5004170;28;20440;-74
2023/04/23 15:14:34;;;;;;;;;;;;;;;;;;5002062;28;19984;-74
2023/04/23 15:17:00;;;;;;;;;;;;;;;;;;5005659;28;19917;-73
2023/04/23 15:19:26;;;;;;;;;;;;;;;;;;5000847;28;19913;-71
2023/04/23 15:21:52;;;;;;;;;;;;;;;;;;4982104;28;19913;-68
2023/04/23 15:24:18;;;;;;;;;;;;;;;;;;5004275;28;19983;-72
2023/04/23 15:26:48;;;;;;;;;;;;;;;;;;5007380;28;19958;-74
2023/04/23 15:29:14;;;;;;;;;;;;;;;;;;4987779;28;19917;-74
2023/04/23 15:31:40;;;;;;;;;;;;;;;;;;4987560;28;19913;-70
2023/04/23 15:34:07;;;;;;;;;;;;;;;;;;5002202;28;19917;-75
2023/04/23 15:36:34;;;;;;;;;;;;;;;;;;4982098;28;19921;-71
2023/04/23 15:39:00;;;;;;;;;;;;;;;;;;5000757;28;20367;-73
2023/04/23 15:41:26;;;;;;;;;;;;;;;;;;4977866;28;19919;-72
2023/04/23 15:43:53;;;;;;;;;;;;;;;;;;5003995;28;20274;-75
2023/04/23 15:46:19;;;;;;;;;;;;;;;;;;4999447;28;20217;-66
2023/04/23 15:48:45;;;;;;;;;;;;;;;;;;5004811;28;19916;-76
2023/04/23 15:51:11;;;;;;;;;;;;;;;;;;5004486;28;19990;-72
2023/04/23 15:53:37;;;;;;;;;;;;;;;;;;4997053;28;20543;-73
2023/04/23 15:56:03;;;;;;;;;;;;;;;;;;5004391;28;19943;-75
2023/04/23 15:58:29;;;;;;;;;;;;;;;;;;5003072;28;19912;-76
2023/04/23 16:00:55;;;;;;;;;;;;;;;;;;5002390;28;20423;-77
2023/04/23 16:03:21;;;;;;;;;;;;;;;;;;4984754;28;20322;-72
2023/04/23 16:05:49;;;;;;;;;;;;;;;;;;5002806;28;19920;-71
2023/04/23 16:08:16;;;;;;;;;;;;;;;;;;4987278;28;19920;-72
2023/04/23 16:10:42;;;;;;;;;;;;;;;;;;5000924;28;19917;-71
2023/04/23 16:13:08;;;;;;;;;;;;;;;;;;5005722;28;20378;-73
2023/04/23 16:15:34;;;;;;;;;;;;;;;;;;5000607;28;19920;-73
2023/04/23 16:18:00;;;;;;;;;;;;;;;;;;5002133;28;19917;-75
2023/04/23 16:20:26;;;;;;;;;;;;;;;;;;5001300;28;20468;-74
2023/04/23 16:22:52;;;;;;;;;;;;;;;;;;5003479;28;20335;-73
2023/04/23 16:25:18;;;;;;;;;;;;;;;;;;5000571;28;19979;-77
2023/04/23 16:27:44;;;;;;;;;;;;;;;;;;5002315;28;19912;-75
2023/04/23 16:30:10;;;;;;;;;;;;;;;;;;5003158;28;20079;-76
2023/04/23 16:32:36;;;;;;;;;;;;;;;;;;5000974;28;20302;-78
2023/04/23 16:35:02;;;;;;;;;;;;;;;;;;5005900;28;19921;-76
2023/04/23 16:37:28;;;;;;;;;;;;;;;;;;5003398;28;19928;-73